Time;durP1;ratioP1;P1;durP2;ratioP2;P2;SDS_P1;SDS_P2;PMS_P1;PMS_P2;Temp;Humidity;BMP_temperature;BMP_pressure;BME280_temperature;BME280_humidity;BME280_pressure;Samples;Min_cycle;Max_cycle;Signal;HPM_P1;HPM_P2
2023/08/28 00:02:08;;;;;;;5.87;3.20;;;13.30;99.90;;;;;;5112515;28;20407;-84
2023/08/28 00:04:34;;;;;;;6.60;3.20;;;13.40;99.90;;;;;;5129081;27;20442;-84
2023/08/28 00:07:00;;;;;;;7.90;3.23;;;;;;;;;;5114426;28;20454;-84
2023/08/28 00:09:25;;;;;;;6.07;3.10;;;13.10;99.90;;;;;;5115483;28;20743;-84
2023/08/28 00:11:54;;;;;;;5.60;2.90;;;13.30;99.90;;;;;;5098772;28;20400;-84
2023/08/28 00:14:20;;;;;;;8.85;3.20;;;;;;;;;;5115798;28;20403;-83
2023/08/28 00:16:46;;;;;;;8.82;3.30;;;13.30;99.90;;;;;;5116647;28;20949;-84
2023/08/28 00:19:12;;;;;;;6.63;3.20;;;13.30;99.90;;;;;;5118454;28;20400;-83
2023/08/28 00:21:38;;;;;;;7.65;3.15;;;13.30;99.90;;;;;;5095501;28;20761;-83
2023/08/28 00:24:05;;;;;;;5.07;3.20;;;13.40;99.90;;;;;;5097922;28;20471;-82
2023/08/28 00:26:30;;;;;;;5.73;3.40;;;13.30;99.90;;;;;;5097453;28;20504;-83
2023/08/28 00:28:57;;;;;;;7.70;3.60;;;;;;;;;;5114139;28;20503;-82
2023/08/28 00:31:22;;;;;;;7.18;3.30;;;13.10;99.90;;;;;;5097635;28;20404;-82
2023/08/28 00:33:48;;;;;;;7.30;3.27;;;13.20;99.90;;;;;;5097099;28;20903;-84
2023/08/28 00:36:15;;;;;;;5.50;3.17;;;13.30;99.90;;;;;;5115256;28;20771;-84
2023/08/28 00:38:41;;;;;;;6.35;3.40;;;13.20;99.90;;;;;;5098591;28;20456;-83
2023/08/28 00:41:07;;;;;;;5.57;3.25;;;13.20;99.90;;;;;;5098729;28;20479;-83
2023/08/28 00:43:33;;;;;;;6.47;3.30;;;;;;;;;;5115586;28;20424;-83
2023/08/28 00:45:59;;;;;;;7.93;3.25;;;;;;;;;;5115022;28;20981;-83
2023/08/28 00:48:25;;;;;;;6.93;3.50;;;;;;;;;;5098854;28;20409;-83
2023/08/28 00:50:52;;;;;;;5.38;3.40;;;;;;;;;;5129108;27;20394;-84
2023/08/28 00:53:18;;;;;;;5.30;3.20;;;;;;;;;;5112011;28;20493;-83
2023/08/28 00:55:44;;;;;;;8.07;3.70;;;12.90;99.90;;;;;;5127790;27;20408;-83
2023/08/28 00:58:10;;;;;;;7.57;3.53;;;13.10;99.90;;;;;;5093590;28;20402;-83
2023/08/28 01:00:36;;;;;;;8.48;3.78;;;13.00;99.90;;;;;;5128769;27;20409;-82
2023/08/28 01:03:03;;;;;;;6.67;3.40;;;;;;;;;;5085440;28;20753;-82
2023/08/28 01:05:45;;;;;;;6.03;3.47;;;12.80;99.90;;;;;;5114878;28;20399;-82
2023/08/28 01:08:28;;;;;;;6.10;3.40;;;;;;;;;;5096723;28;20896;-83
2023/08/28 01:11:00;;;;;;;5.90;3.60;;;13.10;99.90;;;;;;5114120;28;20409;-82
2023/08/28 01:13:36;;;;;;;5.82;3.50;;;12.80;99.90;;;;;;5114511;28;20411;-83
2023/08/28 01:16:02;;;;;;;6.18;3.42;;;;;;;;;;5113551;28;20416;-83
2023/08/28 01:18:28;;;;;;;7.80;4.00;;;12.90;99.90;;;;;;5097264;28;20400;-83
2023/08/28 01:20:54;;;;;;;6.95;3.80;;;12.80;99.90;;;;;;5097909;28;20400;-83
2023/08/28 01:23:34;;;;;;;7.43;3.60;;;12.70;99.90;;;;;;5093591;28;20501;-82
2023/08/28 01:26:01;;;;;;;6.50;3.90;;;12.90;99.90;;;;;;5077971;28;20844;-83
2023/08/28 01:28:27;;;;;;;6.53;3.92;;;12.80;99.90;;;;;;5077515;28;20481;-83
2023/08/28 01:30:53;;;;;;;6.80;3.50;;;;;;;;;;5077881;28;20414;-83
2023/08/28 01:33:20;;;;;;;6.63;3.92;;;12.70;99.90;;;;;;5078814;28;20505;-82
2023/08/28 01:36:11;;;;;;;7.30;3.92;;;12.80;99.90;;;;;;5094100;28;20482;-82
2023/08/28 01:38:48;;;;;;;6.90;4.20;;;12.80;99.90;;;;;;5132572;27;20416;-82
2023/08/28 01:41:17;;;;;;;6.43;4.00;;;12.90;99.90;;;;;;5131533;27;20479;-83
2023/08/28 01:43:48;;;;;;;6.65;4.18;;;12.90;99.90;;;;;;5098291;28;20428;-83
2023/08/28 01:46:15;;;;;;;8.25;4.30;;;12.60;99.90;;;;;;5119893;28;20396;-82
2023/08/28 01:48:45;;;;;;;6.22;3.92;;;12.80;99.90;;;;;;5114255;28;20402;-83
2023/08/28 01:51:11;;;;;;;9.35;4.55;;;12.70;99.90;;;;;;5113809;28;20384;-83
2023/08/28 01:53:37;;;;;;;7.43;4.27;;;12.80;99.90;;;;;;5096138;28;20439;-83
2023/08/28 01:56:09;;;;;;;5.43;4.10;;;;;;;;;;5080240;28;20888;-82
2023/08/28 01:58:45;;;;;;;12.02;4.45;;;;;;;;;;5108654;28;20815;-82
2023/08/28 02:01:11;;;;;;;7.43;3.92;;;12.70;99.90;;;;;;5111690;28;20412;-83
2023/08/28 02:03:41;;;;;;;6.13;3.95;;;12.50;99.90;;;;;;5095818;28;20420;-82
2023/08/28 02:06:07;;;;;;;7.45;4.35;;;12.50;99.90;;;;;;5095808;28;20752;-81
2023/08/28 02:08:33;;;;;;;8.85;4.53;;;12.70;99.90;;;;;;5114195;28;20393;-81
2023/08/28 02:10:59;;;;;;;11.40;4.40;;;;;;;;;;5113350;28;20471;-82
2023/08/28 02:13:25;;;;;;;6.00;3.97;;;12.50;99.90;;;;;;5106414;28;20418;-82
2023/08/28 02:15:51;;;;;;;6.77;4.17;;;12.50;99.90;;;;;;5093241;28;20913;-82
2023/08/28 02:18:17;;;;;;;8.45;4.43;;;;;;;;;;5076182;28;20424;-82
2023/08/28 02:20:44;;;;;;;8.57;4.60;;;;;;;;;;5093260;28;20405;-82
2023/08/28 02:23:11;;;;;;;10.23;4.50;;;;;;;;;;5093419;28;20396;-83
2023/08/28 02:25:41;;;;;;;6.55;4.22;;;12.40;99.90;;;;;;5093066;28;20400;-82
2023/08/28 02:28:07;;;;;;;6.82;4.18;;;12.30;99.90;;;;;;5093568;28;20469;-82
2023/08/28 02:30:33;;;;;;;6.18;3.83;;;;;;;;;;5102654;28;20991;-82
2023/08/28 02:32:58;;;;;;;7.38;4.05;;;12.20;99.90;;;;;;5100128;28;20397;-82
2023/08/28 02:35:25;;;;;;;6.20;3.78;;;12.20;99.90;;;;;;5117604;28;20407;-82
2023/08/28 02:37:50;;;;;;;6.23;3.80;;;12.10;99.90;;;;;;5100969;28;20412;-82
2023/08/28 02:40:16;;;;;;;10.43;3.97;;;12.30;99.90;;;;;;5117938;28;20392;-83
2023/08/28 02:42:42;;;;;;;7.27;4.17;;;;;;;;;;5101178;28;20479;-82
2023/08/28 02:45:08;;;;;;;9.33;4.80;;;;;;;;;;5099379;28;20416;-82
2023/08/28 02:47:34;;;;;;;12.55;5.45;;;;;;;;;;5117908;28;20404;-82
2023/08/28 02:50:00;;;;;;;7.57;4.80;;;12.20;99.90;;;;;;5118390;28;20396;-82
2023/08/28 02:52:26;;;;;;;7.15;5.10;;;12.10;99.90;;;;;;5117785;28;20759;-82
2023/08/28 02:54:52;;;;;;;7.68;4.80;;;;;;;;;;5098403;28;20456;-79
2023/08/28 02:57:18;;;;;;;7.47;4.90;;;;;;;;;;5097541;27;20398;-78
2023/08/28 02:59:44;;;;;;;10.98;5.32;;;;;;;;;;5082044;28;20411;-78
2023/08/28 03:02:10;;;;;;;7.68;5.05;;;;;;;;;;5115722;27;20411;-79
2023/08/28 03:04:36;;;;;;;9.30;5.60;;;;;;;;;;5117468;28;20921;-83
2023/08/28 03:07:03;;;;;;;8.97;5.80;;;;;;;;;;5118362;28;20388;-83
2023/08/28 03:09:32;;;;;;;10.63;6.00;;;;;;;;;;5117371;28;20474;-83
2023/08/28 03:11:57;;;;;;;6.75;5.70;;;12.20;99.90;;;;;;5117711;28;20435;-83
2023/08/28 03:14:25;;;;;;;8.73;5.95;;;;;;;;;;5137618;27;20380;-83
2023/08/28 03:16:50;;;;;;;10.75;6.40;;;12.10;99.90;;;;;;5100021;28;20915;-81
2023/08/28 03:19:16;;;;;;;9.97;6.30;;;12.10;99.90;;;;;;5116752;28;20397;-82
2023/08/28 03:21:42;;;;;;;9.97;6.57;;;12.10;99.90;;;;;;5081727;28;20892;-82
2023/08/28 03:24:08;;;;;;;11.03;6.43;;;12.20;99.90;;;;;;5099162;28;20482;-83
2023/08/28 03:26:33;;;;;;;13.35;6.25;;;12.10;99.90;;;;;;5111203;27;20917;-79
2023/08/28 03:29:00;;;;;;;10.15;6.03;;;;;;;;;;5078303;28;20500;-78
2023/08/28 03:31:29;;;;;;;9.30;6.15;;;12.10;99.90;;;;;;5095765;28;20410;-81
2023/08/28 03:33:56;;;;;;;10.48;6.50;;;;;;;;;;5131190;27;20402;-82
2023/08/28 03:36:21;;;;;;;9.25;5.80;;;12.30;99.90;;;;;;5131468;27;20418;-82
2023/08/28 03:38:47;;;;;;;11.80;6.05;;;12.10;99.90;;;;;;5097196;28;20440;-82
2023/08/28 03:41:13;;;;;;;9.43;6.23;;;12.20;99.90;;;;;;5096607;28;20414;-82
2023/08/28 03:43:38;;;;;;;8.20;6.40;;;12.00;99.90;;;;;;5079597;28;20426;-81
2023/08/28 03:46:05;;;;;;;9.40;6.40;;;;;;;;;;5112558;27;20391;-82
2023/08/28 03:48:30;;;;;;;8.55;6.25;;;12.30;99.90;;;;;;5129604;27;20908;-83
2023/08/28 03:50:56;;;;;;;8.53;5.70;;;11.90;99.90;;;;;;5062506;28;20402;-83
2023/08/28 03:53:22;;;;;;;10.37;6.27;;;12.30;99.90;;;;;;5079008;28;20945;-82
2023/08/28 03:55:48;;;;;;;10.93;6.70;;;11.90;99.90;;;;;;5095603;28;20882;-82
2023/08/28 03:58:13;;;;;;;9.13;6.30;;;12.20;99.90;;;;;;5095780;28;20501;-82
2023/08/28 04:00:39;;;;;;;9.40;6.10;;;;;;;;;;5062513;28;20505;-82
2023/08/28 04:03:05;;;;;;;10.68;6.68;;;12.30;99.90;;;;;;5112598;28;20428;-82
2023/08/28 04:05:32;;;;;;;11.57;6.70;;;;;;;;;;5095443;28;20893;-82
2023/08/28 04:07:59;;;;;;;10.40;6.72;;;;;;;;;;5085762;28;20899;-82
2023/08/28 04:10:25;;;;;;;12.23;6.65;;;;;;;;;;5114733;28;20399;-82
2023/08/28 04:12:50;;;;;;;8.77;6.30;;;12.10;99.90;;;;;;5098292;28;20887;-82
2023/08/28 04:15:16;;;;;;;9.63;6.60;;;12.00;99.90;;;;;;5098991;28;20403;-82
2023/08/28 04:17:42;;;;;;;9.70;6.47;;;12.00;99.90;;;;;;5098511;28;20864;-83
2023/08/28 04:20:12;;;;;;;19.77;6.78;;;12.20;99.90;;;;;;5081991;28;20399;-82
2023/08/28 04:22:43;;;;;;;8.73;6.50;;;12.10;99.90;;;;;;5079683;28;20425;-82
2023/08/28 04:25:10;;;;;;;11.68;6.85;;;12.20;99.90;;;;;;5126970;27;20423;-82
2023/08/28 04:27:36;;;;;;;11.88;6.82;;;;;;;;;;5098488;28;20476;-82
2023/08/28 04:30:04;;;;;;;11.52;6.57;;;12.10;99.90;;;;;;5116852;28;20822;-84
2023/08/28 04:32:29;;;;;;;10.05;6.65;;;12.00;99.90;;;;;;5099092;28;20842;-83
2023/08/28 04:34:55;;;;;;;10.18;6.90;;;;;;;;;;5112139;28;20420;-82
2023/08/28 04:37:23;;;;;;;10.27;6.82;;;;;;;;;;5125655;27;20846;-82
2023/08/28 04:39:48;;;;;;;12.45;7.30;;;11.70;99.90;;;;;;5115391;28;20411;-83
2023/08/28 04:42:15;;;;;;;10.13;7.15;;;;;;;;;;5083272;28;20834;-83
2023/08/28 04:44:41;;;;;;;11.50;7.47;;;11.70;99.90;;;;;;5098796;28;20420;-84
2023/08/28 04:47:07;;;;;;;12.15;7.03;;;;;;;;;;5098834;28;20475;-82
2023/08/28 04:49:33;;;;;;;12.35;7.93;;;;;;;;;;5097028;28;20456;-84
2023/08/28 04:51:59;;;;;;;11.63;7.53;;;;;;;;;;5098384;28;20396;-84
2023/08/28 04:54:26;;;;;;;10.30;7.68;;;;;;;;;;5114786;28;20407;-84
2023/08/28 04:56:52;;;;;;;13.25;7.88;;;;;;;;;;5115995;28;20420;-83
2023/08/28 04:59:17;;;;;;;12.48;7.70;;;11.90;99.90;;;;;;5115357;28;20411;-83
2023/08/28 05:01:43;;;;;;;13.02;7.85;;;11.80;99.90;;;;;;5114798;28;20903;-83
2023/08/28 05:04:09;;;;;;;12.88;8.25;;;;;;;;;;5079583;28;20419;-84
2023/08/28 05:06:35;;;;;;;12.50;8.32;;;;;;;;;;5082195;28;20778;-84
2023/08/28 05:09:01;;;;;;;12.35;8.02;;;;;;;;;;5082084;28;20392;-83
2023/08/28 05:11:27;;;;;;;12.05;7.63;;;;;;;;;;5115863;28;20479;-83
2023/08/28 05:13:53;;;;;;;12.00;7.47;;;11.70;99.90;;;;;;5097565;28;20400;-84
2023/08/28 05:16:19;;;;;;;11.98;7.55;;;11.70;99.90;;;;;;5097792;28;20475;-83
2023/08/28 05:18:45;;;;;;;11.10;7.75;;;11.60;99.90;;;;;;5130455;27;20903;-83
2023/08/28 05:21:10;;;;;;;14.75;8.18;;;11.90;99.90;;;;;;5097132;28;20404;-83
2023/08/28 05:23:37;;;;;;;16.25;8.63;;;;;;;;;;5097284;28;20424;-83
2023/08/28 05:26:03;;;;;;;9.75;7.80;;;;;;;;;;5114305;28;20497;-84
2023/08/28 05:28:31;;;;;;;12.73;8.18;;;12.10;99.90;;;;;;5146656;27;20829;-83
2023/08/28 05:30:58;;;;;;;13.35;7.85;;;12.20;99.90;;;;;;5115224;28;20752;-83
2023/08/28 05:33:24;;;;;;;11.57;7.78;;;;;;;;;;5116069;28;20404;-84
2023/08/28 05:35:50;;;;;;;11.50;7.30;;;12.00;99.90;;;;;;5098695;28;20434;-82
2023/08/28 05:38:16;;;;;;;11.25;7.40;;;;;;;;;;5115102;28;20405;-84
2023/08/28 05:40:42;;;;;;;8.13;6.60;;;;;;;;;;5112495;28;20983;-83
2023/08/28 05:43:08;;;;;;;9.20;6.47;;;12.40;99.90;;;;;;5077187;28;20422;-83
2023/08/28 05:45:34;;;;;;;11.10;6.80;;;;;;;;;;5076545;28;20389;-83
2023/08/28 05:48:00;;;;;;;9.32;6.40;;;12.40;99.90;;;;;;5093464;28;20787;-83
2023/08/28 05:50:26;;;;;;;8.57;6.55;;;12.60;99.90;;;;;;5093267;28;20401;-83
2023/08/28 05:52:51;;;;;;;9.80;6.45;;;12.60;99.90;;;;;;5092939;28;20410;-84
2023/08/28 05:55:17;;;;;;;8.43;5.93;;;;;;;;;;5078760;28;20498;-83
2023/08/28 05:57:43;;;;;;;8.63;5.70;;;12.70;99.90;;;;;;5096378;28;20413;-83
2023/08/28 06:00:12;;;;;;;8.82;5.75;;;12.80;99.90;;;;;;5114119;28;20404;-84
2023/08/28 06:02:38;;;;;;;10.30;6.05;;;;;;;;;;5113815;28;20401;-83
2023/08/28 06:05:04;;;;;;;7.82;5.97;;;;;;;;;;5096471;28;20416;-84
2023/08/28 06:07:31;;;;;;;8.87;5.70;;;12.90;99.90;;;;;;5098599;28;20396;-83
2023/08/28 06:09:57;;;;;;;7.15;5.85;;;13.00;99.90;;;;;;5115297;28;20392;-83
2023/08/28 06:12:22;;;;;;;9.98;5.35;;;13.10;99.90;;;;;;5097508;28;20465;-84
2023/08/28 06:14:48;;;;;;;8.45;5.40;;;13.40;99.90;;;;;;5096633;28;20466;-84
2023/08/28 06:17:14;;;;;;;9.80;5.50;;;13.40;99.90;;;;;;5088444;28;20966;-82
2023/08/28 06:19:39;;;;;;;7.10;5.00;;;13.70;99.90;;;;;;5110706;28;20397;-82
2023/08/28 06:22:05;;;;;;;8.38;4.78;;;13.80;99.90;;;;;;5076510;28;20459;-82
2023/08/28 06:24:32;;;;;;;6.43;4.75;;;13.70;99.90;;;;;;5127287;27;20782;-83
2023/08/28 06:26:58;;;;;;;7.22;4.65;;;13.80;99.90;;;;;;5083665;28;20420;-83
2023/08/28 06:29:23;;;;;;;7.35;4.90;;;13.80;99.90;;;;;;5113541;28;20408;-83
2023/08/28 06:31:50;;;;;;;10.10;4.80;;;14.20;99.90;;;;;;5113389;28;20518;-84
2023/08/28 06:34:16;;;;;;;7.30;4.38;;;14.30;99.90;;;;;;5096138;28;20388;-83
2023/08/28 06:36:42;;;;;;;11.32;4.97;;;14.10;99.90;;;;;;5113271;28;20958;-83
2023/08/28 06:39:07;;;;;;;7.85;4.43;;;14.40;99.90;;;;;;5113549;28;20400;-84
2023/08/28 06:41:33;;;;;;;7.45;4.28;;;14.60;99.90;;;;;;5101205;28;20418;-84
2023/08/28 06:44:00;;;;;;;5.70;4.03;;;14.60;99.90;;;;;;5075988;28;20471;-84
2023/08/28 06:46:26;;;;;;;6.78;4.20;;;14.80;99.90;;;;;;5110825;28;20405;-84
2023/08/28 06:48:52;;;;;;;6.97;4.47;;;14.80;99.90;;;;;;5092794;28;20447;-83
2023/08/28 06:51:19;;;;;;;9.95;4.30;;;14.80;99.90;;;;;;5092727;28;20448;-84
2023/08/28 06:53:45;;;;;;;5.32;3.70;;;15.10;99.90;;;;;;5111056;28;20897;-85
2023/08/28 06:56:11;;;;;;;6.20;3.60;;;15.10;99.90;;;;;;5081367;28;20480;-85
2023/08/28 06:58:36;;;;;;;5.43;3.50;;;15.20;99.90;;;;;;5096539;28;20411;-84
2023/08/28 07:01:02;;;;;;;6.20;3.60;;;15.40;99.90;;;;;;5096108;28;20517;-84
2023/08/28 07:03:28;;;;;;;6.80;3.50;;;15.40;99.90;;;;;;5096182;28;20503;-84
2023/08/28 07:05:54;;;;;;;5.70;3.70;;;16.00;99.90;;;;;;5095197;28;20436;-84
2023/08/28 07:08:20;;;;;;;5.03;3.57;;;15.80;99.90;;;;;;5112839;28;20407;-84
2023/08/28 07:10:45;;;;;;;4.70;3.28;;;15.90;99.90;;;;;;5111192;28;20507;-84
2023/08/28 07:13:11;;;;;;;8.20;3.63;;;16.00;99.90;;;;;;5097224;28;20470;-85
2023/08/28 07:15:53;;;;;;;6.72;3.40;;;15.80;99.90;;;;;;5109652;28;20957;-84
2023/08/28 07:18:19;;;;;;;4.68;3.42;;;16.20;99.90;;;;;;5079002;28;20408;-85
2023/08/28 07:20:45;;;;;;;4.95;3.47;;;16.20;99.90;;;;;;5063330;28;20407;-85
2023/08/28 07:23:10;;;;;;;5.57;3.58;;;16.50;99.90;;;;;;5113746;27;20402;-84
2023/08/28 07:25:38;;;;;;;5.90;3.30;;;16.50;99.90;;;;;;5063075;28;20441;-84
2023/08/28 07:28:05;;;;;;;6.20;3.20;;;16.90;99.90;;;;;;5096134;28;20889;-85
2023/08/28 07:30:31;;;;;;;5.63;3.13;;;17.00;99.90;;;;;;5118761;27;20500;-84
2023/08/28 07:32:57;;;;;;;7.10;3.30;;;16.90;99.90;;;;;;5088059;28;20422;-84
2023/08/28 07:35:22;;;;;;;4.47;3.00;;;17.00;99.90;;;;;;5140322;27;20419;-84
2023/08/28 07:37:48;;;;;;;4.43;2.80;;;17.30;99.90;;;;;;5087853;28;20499;-85
2023/08/28 07:40:15;;;;;;;9.70;2.57;;;16.90;99.90;;;;;;5121859;28;20463;-84
2023/08/28 07:42:40;;;;;;;7.15;2.80;;;17.00;99.90;;;;;;5116646;28;20401;-84
2023/08/28 07:45:07;;;;;;;5.18;2.70;;;17.30;99.90;;;;;;5082671;28;20428;-84
2023/08/28 07:47:32;;;;;;;5.03;2.20;;;17.50;99.90;;;;;;5099342;28;20407;-85
2023/08/28 07:49:58;;;;;;;4.00;1.83;;;17.50;99.90;;;;;;5116817;28;20404;-83
2023/08/28 07:52:24;;;;;;;4.77;2.33;;;17.80;99.90;;;;;;5132297;27;20407;-85
2023/08/28 07:54:49;;;;;;;4.53;2.23;;;17.60;99.90;;;;;;5115480;28;20451;-84
2023/08/28 07:57:15;;;;;;;6.28;2.30;;;17.70;99.90;;;;;;5115596;28;20456;-85
2023/08/28 07:59:41;;;;;;;4.85;1.70;;;18.20;99.90;;;;;;5099452;28;20444;-85
2023/08/28 08:02:07;;;;;;;6.07;1.67;;;18.20;99.90;;;;;;5116366;28;20858;-84
2023/08/28 08:04:33;;;;;;;4.95;1.50;;;18.00;99.90;;;;;;5116160;28;20447;-84
2023/08/28 08:06:59;;;;;;;3.67;1.50;;;18.30;99.90;;;;;;5082042;28;20396;-84
2023/08/28 08:09:25;;;;;;;4.68;1.50;;;18.40;99.90;;;;;;5079015;28;20408;-85
2023/08/28 08:11:51;;;;;;;3.87;1.70;;;18.70;99.90;;;;;;5099263;28;20403;-84
2023/08/28 08:14:17;;;;;;;3.57;1.50;;;18.60;99.90;;;;;;5115795;28;20395;-84
2023/08/28 08:16:43;;;;;;;3.50;1.50;;;18.70;99.90;;;;;;5099044;28;20399;-83
2023/08/28 08:19:09;;;;;;;2.60;1.35;;;18.80;99.90;;;;;;5098528;28;20439;-83
2023/08/28 08:21:35;;;;;;;4.32;1.60;;;19.00;99.90;;;;;;5115119;28;20404;-84
2023/08/28 08:24:01;;;;;;;4.35;1.20;;;19.30;99.90;;;;;;5096754;28;20800;-86
2023/08/28 08:26:27;;;;;;;5.05;1.30;;;19.20;99.90;;;;;;5078480;28;20459;-85
2023/08/28 08:28:52;;;;;;;3.67;1.00;;;19.30;99.90;;;;;;5112421;28;20409;-86
2023/08/28 08:31:18;;;;;;;3.23;1.40;;;19.70;99.90;;;;;;5095280;28;20508;-85
2023/08/28 08:33:44;;;;;;;3.35;1.38;;;19.60;99.90;;;;;;5095061;28;20398;-84
2023/08/28 08:36:13;;;;;;;4.50;1.30;;;19.40;99.90;;;;;;5094393;28;20392;-83
2023/08/28 08:38:40;;;;;;;4.47;1.20;;;19.60;99.90;;;;;;5108027;28;20416;-85
2023/08/28 08:41:09;;;;;;;3.05;1.10;;;19.60;99.90;;;;;;5078720;28;20414;-84
2023/08/28 08:43:35;;;;;;;3.55;1.10;;;19.30;99.90;;;;;;5094879;28;20429;-84
2023/08/28 08:46:05;;;;;;;3.53;1.43;;;19.20;99.90;;;;;;5094091;28;20398;-84
2023/08/28 08:48:36;;;;;;;4.53;1.10;;;19.20;99.90;;;;;;5077456;28;20484;-84
2023/08/28 08:51:07;;;;;;;2.53;1.20;;;19.20;99.90;;;;;;5093910;28;20540;-85
2023/08/28 08:53:56;;;;;;;3.55;1.10;;;19.40;99.90;;;;;;5078075;28;20409;-85
2023/08/28 08:56:23;;;;;;;3.13;1.20;;;19.50;99.90;;;;;;5094483;28;20488;-83
2023/08/28 08:58:50;;;;;;;3.28;1.00;;;19.50;99.90;;;;;;5097186;28;20393;-84
2023/08/28 09:01:16;;;;;;;2.80;1.25;;;19.80;99.90;;;;;;5132824;27;20416;-84
2023/08/28 09:03:43;;;;;;;3.63;1.10;;;19.60;99.90;;;;;;5097805;28;20449;-85
2023/08/28 09:06:10;;;;;;;4.95;1.33;;;19.70;99.90;;;;;;5130651;27;20467;-85
2023/08/28 09:08:39;;;;;;;5.35;1.30;;;20.20;99.90;;;;;;5114919;28;20404;-83
2023/08/28 09:11:05;;;;;;;1.93;0.90;;;20.00;99.90;;;;;;5115455;28;20464;-84
2023/08/28 09:13:31;;;;;;;4.90;1.30;;;20.20;99.90;;;;;;5116311;28;20402;-83
2023/08/28 09:15:57;;;;;;;2.42;0.98;;;20.50;99.90;;;;;;5120842;28;20400;-83
2023/08/28 09:18:25;;;;;;;3.53;1.10;;;20.50;99.90;;;;;;5081569;28;20814;-83
2023/08/28 09:21:11;;;;;;;2.78;1.20;;;20.90;99.90;;;;;;5097520;28;20915;-78
2023/08/28 09:23:47;;;;;;;2.92;1.10;;;20.90;99.90;;;;;;5113105;28;20409;-79
2023/08/28 09:26:21;;;;;;;5.05;1.20;;;21.20;99.90;;;;;;5112651;28;20813;-80
2023/08/28 09:28:59;;;;;;;2.10;1.00;;;21.30;99.90;;;;;;5128427;27;21776;-78
2023/08/28 09:31:36;;;;;;;3.03;0.90;;;21.10;99.90;;;;;;5095789;28;20408;-78
2023/08/28 09:34:03;;;;;;;2.47;0.90;;;21.00;99.90;;;;;;5078372;28;20407;-79
2023/08/28 09:36:36;;;;;;;2.75;1.05;;;20.50;99.90;;;;;;5095874;28;20423;-79
2023/08/28 09:39:04;;;;;;;2.15;1.00;;;20.20;99.90;;;;;;5096254;28;20408;-79
2023/08/28 09:41:39;;;;;;;3.20;1.00;;;20.20;99.90;;;;;;5110578;28;20465;-78
2023/08/28 09:44:05;;;;;;;3.17;1.27;;;20.10;99.90;;;;;;5095763;28;20453;-78
2023/08/28 09:46:30;;;;;;;3.03;1.10;;;20.10;99.90;;;;;;5078791;28;20404;-78
2023/08/28 09:48:57;;;;;;;3.15;1.20;;;20.00;99.90;;;;;;5130009;27;20485;-79
2023/08/28 09:51:36;;;;;;;4.60;1.30;;;20.00;99.90;;;;;;5093189;27;20521;-79
2023/08/28 09:54:04;;;;;;;3.33;1.20;;;19.70;99.90;;;;;;5095233;28;20404;-78
2023/08/28 09:56:31;;;;;;;3.17;1.10;;;19.70;99.90;;;;;;5095200;28;20406;-78
2023/08/28 09:59:03;;;;;;;2.00;1.00;;;19.40;99.90;;;;;;5095374;28;20478;-78
2023/08/28 10:01:34;;;;;;;2.10;1.10;;;19.50;99.90;;;;;;5078822;28;20432;-78
2023/08/28 10:04:03;;;;;;;1.50;0.95;;;19.40;99.90;;;;;;5093400;28;20781;-78
2023/08/28 10:06:31;;;;;;;2.85;1.00;;;19.20;99.90;;;;;;5095008;28;20408;-78
2023/08/28 10:09:00;;;;;;;2.90;1.10;;;19.00;99.90;;;;;;5112055;28;20400;-78
2023/08/28 10:11:39;;;;;;;2.13;1.20;;;19.20;99.90;;;;;;5095215;28;20392;-78
2023/08/28 10:14:06;;;;;;;2.88;1.13;;;18.90;99.90;;;;;;5095939;28;20437;-79
2023/08/28 10:16:41;;;;;;;3.42;1.40;;;18.80;99.90;;;;;;5095453;28;20428;-79
2023/08/28 10:19:18;;;;;;;4.07;1.35;;;18.70;99.90;;;;;;5111536;28;20779;-78
2023/08/28 10:21:45;;;;;;;3.30;1.50;;;18.80;99.90;;;;;;5113510;28;20492;-78
2023/08/28 10:24:14;;;;;;;5.60;1.48;;;18.60;99.90;;;;;;5112920;28;20499;-78
2023/08/28 10:26:42;;;;;;;2.95;1.25;;;18.70;99.90;;;;;;5111127;28;20495;-79
2023/08/28 10:29:09;;;;;;;2.93;1.10;;;18.90;99.90;;;;;;5078298;28;20844;-79
2023/08/28 10:31:37;;;;;;;2.08;1.30;;;18.90;99.90;;;;;;5126965;27;20395;-79
2023/08/28 10:34:06;;;;;;;3.45;1.00;;;18.80;99.90;;;;;;5091955;28;20481;-78
2023/08/28 10:36:33;;;;;;;3.72;1.08;;;19.20;99.90;;;;;;5092264;28;20754;-79
2023/08/28 10:39:01;;;;;;;2.42;1.00;;;19.60;99.90;;;;;;5108810;28;20433;-78
2023/08/28 10:41:28;;;;;;;2.83;1.00;;;19.80;99.90;;;;;;5059799;28;20414;-78
2023/08/28 10:43:54;;;;;;;2.70;1.08;;;20.50;99.90;;;;;;5125883;28;20425;-78
2023/08/28 10:46:21;;;;;;;2.53;1.00;;;20.60;99.90;;;;;;5091922;28;20398;-78
2023/08/28 10:48:48;;;;;;;2.88;1.10;;;20.70;99.90;;;;;;5126037;28;20398;-78
2023/08/28 10:51:14;;;;;;;2.72;1.02;;;20.90;99.90;;;;;;5075122;28;20464;-78
2023/08/28 10:53:40;;;;;;;2.40;1.10;;;20.90;99.90;;;;;;5112660;28;20425;-79
2023/08/28 10:56:06;;;;;;;2.47;1.00;;;20.50;99.90;;;;;;5113503;28;20412;-79
2023/08/28 10:58:37;;;;;;;2.60;1.00;;;19.30;99.90;;;;;;5098872;28;20429;-79
2023/08/28 11:01:13;;;;;;;2.20;1.00;;;19.90;99.90;;;;;;5098761;28;20472;-79
2023/08/28 11:03:51;;;;;;;4.70;1.20;;;19.60;99.90;;;;;;5096617;27;20434;-79
2023/08/28 11:06:39;;;;;;;2.78;1.20;;;19.50;99.90;;;;;;5098986;28;20483;-79
2023/08/28 11:09:27;;;;;;;1.73;0.90;;;19.20;99.90;;;;;;5099038;28;20400;-79
2023/08/28 11:12:16;;;;;;;3.10;1.00;;;18.90;99.90;;;;;;5098960;28;20428;-77
2023/08/28 11:14:54;;;;;;;3.10;1.30;;;19.10;99.90;;;;;;5105820;28;20891;-78
2023/08/28 11:17:21;;;;;;;5.07;1.38;;;19.10;99.90;;;;;;5096174;28;20412;-78
2023/08/28 11:19:56;;;;;;;5.78;1.33;;;19.10;99.90;;;;;;5149802;27;20392;-78
2023/08/28 11:22:41;;;;;;;3.25;1.20;;;19.40;99.90;;;;;;5098663;28;20461;-78
2023/08/28 11:25:12;;;;;;;2.17;1.10;;;19.50;99.90;;;;;;5080937;28;20416;-78
2023/08/28 11:27:48;;;;;;;2.97;0.93;;;19.50;99.90;;;;;;5112639;28;20416;-77
2023/08/28 11:30:16;;;;;;;1.20;0.90;;;19.50;99.90;;;;;;5097837;28;20408;-78
2023/08/28 11:32:49;;;;;;;3.03;1.10;;;19.70;99.90;;;;;;5098000;28;20402;-77
2023/08/28 11:35:18;;;;;;;4.75;1.38;;;20.00;99.90;;;;;;5115047;28;20411;-78
2023/08/28 11:38:03;;;;;;;3.08;1.20;;;20.10;99.90;;;;;;5115151;28;20450;-78
2023/08/28 11:40:29;;;;;;;4.55;1.20;;;20.00;99.90;;;;;;5096573;27;20900;-78
2023/08/28 11:43:03;;;;;;;2.67;1.05;;;20.20;99.90;;;;;;5131898;27;20403;-77
2023/08/28 11:45:29;;;;;;;3.33;1.10;;;20.40;99.90;;;;;;5113816;27;20452;-78
2023/08/28 11:48:00;;;;;;;2.13;1.00;;;20.40;99.90;;;;;;5078154;28;20422;-78
2023/08/28 11:50:27;;;;;;;2.00;1.00;;;20.50;99.90;;;;;;5065900;28;20908;-78
2023/08/28 11:52:54;;;;;;;3.17;1.20;;;20.70;99.90;;;;;;5116069;28;20407;-78
2023/08/28 11:55:20;;;;;;;2.40;1.13;;;20.90;99.90;;;;;;5115831;28;20403;-79
2023/08/28 11:57:48;;;;;;;2.67;1.25;;;20.70;99.90;;;;;;5094313;28;20420;-77
2023/08/28 12:00:16;;;;;;;2.22;1.10;;;20.70;99.90;;;;;;5094428;28;20409;-77
2023/08/28 12:02:43;;;;;;;3.08;1.05;;;20.80;99.90;;;;;;5126785;27;20503;-77
2023/08/28 12:05:10;;;;;;;2.95;1.13;;;21.00;99.90;;;;;;5118628;28;20439;-77
2023/08/28 12:07:36;;;;;;;2.00;1.00;;;21.20;99.90;;;;;;5119850;28;20396;-76
2023/08/28 12:10:03;;;;;;;2.90;1.00;;;21.20;99.90;;;;;;5097511;28;20420;-77
2023/08/28 12:12:29;;;;;;;1.70;0.95;;;21.70;99.90;;;;;;5114056;28;20404;-78
2023/08/28 12:14:55;;;;;;;2.58;1.00;;;22.10;99.90;;;;;;5111992;28;20424;-77
2023/08/28 12:17:27;;;;;;;3.80;1.55;;;22.50;99.90;;;;;;5083889;28;20424;-77
2023/08/28 12:19:53;;;;;;;4.35;1.65;;;22.30;99.90;;;;;;5119864;28;20892;-78
2023/08/28 12:22:21;;;;;;;2.72;1.30;;;22.20;99.90;;;;;;5104227;28;20407;-78
2023/08/28 12:24:49;;;;;;;2.60;0.93;;;22.30;99.90;;;;;;5098674;28;20737;-78
2023/08/28 12:27:16;;;;;;;2.58;1.10;;;22.50;99.90;;;;;;5104180;28;20414;-78
2023/08/28 12:29:42;;;;;;;2.13;0.90;;;22.30;99.90;;;;;;5128296;27;20411;-78
2023/08/28 12:32:14;;;;;;;2.88;1.10;;;22.00;99.90;;;;;;5088105;28;20698;-77
2023/08/28 12:34:40;;;;;;;3.47;1.13;;;22.00;99.90;;;;;;5114317;28;20456;-78
2023/08/28 12:37:11;;;;;;;1.90;0.97;;;22.20;99.90;;;;;;5096881;28;20420;-78
2023/08/28 12:39:46;;;;;;;3.97;1.10;;;21.90;99.90;;;;;;5097497;28;20483;-78
2023/08/28 12:42:13;;;;;;;2.03;0.90;;;22.80;99.90;;;;;;5114186;28;20978;-78
2023/08/28 12:44:42;;;;;;;2.33;1.00;;;22.90;99.90;;;;;;5096847;28;20427;-78
2023/08/28 12:47:09;;;;;;;1.90;1.00;;;22.80;99.90;;;;;;5106925;28;20412;-78
2023/08/28 12:49:34;;;;;;;5.38;1.35;;;23.00;99.90;;;;;;5097030;28;20397;-78
2023/08/28 12:52:01;;;;;;;2.58;1.02;;;23.30;99.90;;;;;;5114065;28;20476;-78
2023/08/28 12:54:27;;;;;;;2.10;1.13;;;23.10;99.90;;;;;;5113931;28;20396;-78
2023/08/28 12:56:53;;;;;;;2.80;1.20;;;23.10;99.90;;;;;;5096724;28;20396;-77
2023/08/28 12:59:22;;;;;;;1.63;1.10;;;23.00;99.90;;;;;;5112986;28;20476;-78
2023/08/28 13:01:48;;;;;;;3.77;1.37;;;22.70;99.90;;;;;;5077630;28;20938;-77
2023/08/28 13:04:14;;;;;;;4.45;1.30;;;22.40;99.90;;;;;;5113533;28;20411;-78
2023/08/28 13:06:39;;;;;;;2.23;1.20;;;22.30;99.90;;;;;;5113389;28;20404;-78
2023/08/28 13:09:06;;;;;;;1.80;1.07;;;22.30;99.90;;;;;;5096631;28;20396;-75